createdAt,value
2022-11-27T00:01:34.448Z,7.60
2022-11-27T00:04:01.422Z,8.73
2022-11-27T00:06:30.029Z,8.53
2022-11-27T00:08:58.789Z,8.60
2022-11-27T00:11:28.816Z,8.10
2022-11-27T00:13:55.831Z,7.77
2022-11-27T00:16:23.951Z,7.47
2022-11-27T00:18:50.852Z,7.03
2022-11-27T00:21:24.264Z,7.13
2022-11-27T00:23:53.412Z,7.33
2022-11-27T00:26:21.429Z,7.00
2022-11-27T00:28:48.829Z,6.60
2022-11-27T00:31:19.868Z,6.80
2022-11-27T00:33:47.148Z,6.97
2022-11-27T00:36:15.488Z,7.27
2022-11-27T00:38:42.347Z,8.37
2022-11-27T00:41:12.476Z,7.37
2022-11-27T00:43:44.375Z,7.50
2022-11-27T00:46:17.506Z,7.33
2022-11-27T00:48:45.624Z,7.57
2022-11-27T00:51:19.104Z,7.00
2022-11-27T00:53:47.031Z,7.23
2022-11-27T00:56:19.627Z,7.03
2022-11-27T00:58:46.900Z,7.27
2022-11-27T01:01:24.087Z,7.27
2022-11-27T01:03:51.513Z,6.60
2022-11-27T01:06:20.320Z,7.53
2022-11-27T01:08:48.033Z,7.60
2022-11-27T01:11:23.005Z,7.13
2022-11-27T01:13:49.851Z,7.57
2022-11-27T01:16:20.989Z,7.90
2022-11-27T01:18:49.671Z,6.63
2022-11-27T01:21:20.338Z,7.20
2022-11-27T01:23:48.683Z,7.37
2022-11-27T01:26:18.444Z,7.83
2022-11-27T01:28:46.516Z,6.63
2022-11-27T01:31:20.703Z,6.97
2022-11-27T01:33:48.196Z,7.43
2022-11-27T01:36:16.296Z,6.80
2022-11-27T01:38:43.549Z,8.13
2022-11-27T01:41:20.827Z,6.70
2022-11-27T01:43:56.360Z,7.63
2022-11-27T01:46:33.308Z,8.17
2022-11-27T01:49:08.752Z,8.33
2022-11-27T01:51:44.631Z,8.77
2022-11-27T01:54:12.711Z,7.87
2022-11-27T01:56:41.862Z,8.60
2022-11-27T01:59:08.711Z,8.13
2022-11-27T02:01:35.668Z,9.67
2022-11-27T02:04:03.315Z,8.57
2022-11-27T02:06:30.266Z,7.90
2022-11-27T02:08:57.236Z,8.13
2022-11-27T02:11:49.020Z,6.40
2022-11-27T02:14:15.753Z,7.77
2022-11-27T02:17:03.134Z,6.40
2022-11-27T02:20:06.981Z,8.67
2022-11-27T02:23:16.093Z,10.97
2022-11-27T02:26:41.600Z,10.10
2022-11-27T02:29:11.331Z,10.10
2022-11-27T02:31:53.545Z,8.70
2022-11-27T02:34:37.462Z,10.07
2022-11-27T02:37:31.321Z,9.80
2022-11-27T02:40:03.876Z,11.20
2022-11-27T02:43:04.974Z,14.00
2022-11-27T02:45:48.675Z,12.17
2022-11-27T02:48:20.099Z,11.70
2022-11-27T02:50:48.119Z,11.40
2022-11-27T02:53:26.848Z,12.03
2022-11-27T02:55:55.900Z,11.20
2022-11-27T02:58:26.975Z,11.87
2022-11-27T03:00:55.801Z,12.80
2022-11-27T03:03:27.440Z,12.77
2022-11-27T03:06:00.811Z,11.80
2022-11-27T03:08:44.509Z,11.40
2022-11-27T03:11:15.048Z,11.20
2022-11-27T03:13:52.420Z,11.97
2022-11-27T03:16:40.873Z,11.10
2022-11-27T03:19:23.738Z,12.43
2022-11-27T03:22:00.445Z,12.13
2022-11-27T03:24:29.547Z,9.83
2022-11-27T03:26:59.149Z,10.10
2022-11-27T03:29:30.347Z,10.80
2022-11-27T03:31:57.965Z,11.17
2022-11-27T03:34:25.316Z,11.27
2022-11-27T03:36:52.156Z,10.33
2022-11-27T03:39:21.556Z,10.07
2022-11-27T03:42:20.570Z,9.30
2022-11-27T03:44:55.160Z,9.13
2022-11-27T03:48:07.689Z,9.80
2022-11-27T03:51:10.247Z,8.30
2022-11-27T03:53:49.076Z,10.17
2022-11-27T03:56:39.515Z,14.17
2022-11-27T03:59:15.959Z,14.60
2022-11-27T04:01:43.097Z,10.20
2022-11-27T04:04:10.049Z,9.53
2022-11-27T04:06:36.889Z,9.60
2022-11-27T04:09:04.515Z,8.50
2022-11-27T04:11:31.647Z,9.80
2022-11-27T04:13:58.471Z,10.43
2022-11-27T04:16:25.356Z,10.40
2022-11-27T04:18:52.252Z,9.63
2022-11-27T04:21:19.493Z,9.23
2022-11-27T04:23:46.395Z,10.60
2022-11-27T04:26:13.313Z,9.17
2022-11-27T04:28:40.343Z,9.70
2022-11-27T04:31:07.217Z,9.17
2022-11-27T04:33:34.218Z,9.53
2022-11-27T04:36:01.067Z,7.17
2022-11-27T04:38:27.900Z,7.80
2022-11-27T04:40:54.743Z,12.50
2022-11-27T04:43:21.619Z,8.43
2022-11-27T04:45:48.448Z,7.97
2022-11-27T04:48:15.243Z,9.53
2022-11-27T04:50:42.173Z,9.83
2022-11-27T04:53:09.004Z,9.30
2022-11-27T04:55:36.078Z,7.97
2022-11-27T04:58:02.948Z,12.07
2022-11-27T05:00:29.840Z,7.87
2022-11-27T05:02:56.745Z,10.60
2022-11-27T05:05:23.555Z,8.40
2022-11-27T05:07:50.428Z,16.97
2022-11-27T05:10:17.329Z,8.33
2022-11-27T05:12:44.163Z,7.10
2022-11-27T05:15:11.265Z,7.90
2022-11-27T05:17:38.115Z,7.83
2022-11-27T05:20:06.094Z,8.00
2022-11-27T05:22:32.936Z,8.27
2022-11-27T05:24:59.743Z,7.63
2022-11-27T05:27:26.602Z,7.90
2022-11-27T05:29:53.399Z,8.53
2022-11-27T05:32:20.303Z,7.53
2022-11-27T05:34:48.623Z,8.67
2022-11-27T05:37:19.413Z,8.20
2022-11-27T05:39:47.054Z,7.43
2022-11-27T05:42:14.000Z,7.00
2022-11-27T05:44:41.024Z,8.27
2022-11-27T05:47:08.027Z,7.67
2022-11-27T05:49:35.269Z,9.57
2022-11-27T05:52:02.121Z,7.40
2022-11-27T05:54:28.974Z,8.40
2022-11-27T05:56:55.797Z,7.77
2022-11-27T05:59:22.592Z,7.77
2022-11-27T06:01:49.644Z,8.47
2022-11-27T06:04:16.800Z,8.23
2022-11-27T06:06:43.638Z,9.20
2022-11-27T06:09:13.050Z,8.77
2022-11-27T06:11:41.024Z,8.80
2022-11-27T06:14:11.499Z,8.50
2022-11-27T06:16:38.806Z,7.83
2022-11-27T06:19:05.627Z,8.03
2022-11-27T06:21:32.392Z,8.90
2022-11-27T06:23:59.321Z,8.93
2022-11-27T06:26:31.925Z,7.60
2022-11-27T06:29:01.307Z,9.90
2022-11-27T06:31:31.179Z,8.27
2022-11-27T06:33:58.897Z,8.80
2022-11-27T06:36:31.889Z,9.07
2022-11-27T06:38:58.875Z,8.33
2022-11-27T06:41:28.060Z,11.07
2022-11-27T06:43:56.081Z,9.83
2022-11-27T06:46:24.212Z,10.13
2022-11-27T06:48:52.672Z,11.60
2022-11-27T06:51:23.872Z,9.77
2022-11-27T06:53:52.409Z,11.93
2022-11-27T06:56:22.909Z,12.73
2022-11-27T06:58:55.251Z,9.93
2022-11-27T07:01:23.929Z,12.50
2022-11-27T07:03:51.009Z,10.53
2022-11-27T07:06:23.827Z,14.43
2022-11-27T07:08:50.877Z,9.87
2022-11-27T07:11:21.623Z,8.10
2022-11-27T07:13:50.502Z,15.07
2022-11-27T07:16:18.856Z,8.87
2022-11-27T07:18:52.973Z,8.60
2022-11-27T07:21:20.582Z,9.73
2022-11-27T07:23:47.413Z,10.63
2022-11-27T07:26:21.550Z,8.30
2022-11-27T07:28:48.844Z,13.50
2022-11-27T07:31:26.631Z,10.33
2022-11-27T07:33:54.179Z,9.80
2022-11-27T07:36:27.088Z,9.07
2022-11-27T07:38:54.626Z,9.70
2022-11-27T07:41:21.737Z,10.07
2022-11-27T07:43:49.157Z,8.90
2022-11-27T07:46:23.019Z,9.67
2022-11-27T07:48:50.097Z,10.43
2022-11-27T07:51:21.170Z,9.90
2022-11-27T07:53:48.658Z,9.57
2022-11-27T07:56:16.834Z,8.43
2022-11-27T07:58:44.132Z,8.90
2022-11-27T08:01:15.137Z,9.30
2022-11-27T08:03:45.191Z,9.47
2022-11-27T08:06:21.296Z,10.87
2022-11-27T08:08:49.411Z,10.73
2022-11-27T08:11:32.818Z,11.17
2022-11-27T08:14:05.543Z,11.13
2022-11-27T08:16:34.179Z,12.60
2022-11-27T08:19:01.488Z,10.77
2022-11-27T08:21:29.548Z,14.10
2022-11-27T08:23:58.064Z,9.97
2022-11-27T08:26:27.614Z,9.33
2022-11-27T08:28:55.555Z,9.67
2022-11-27T08:31:22.743Z,10.63
2022-11-27T08:33:49.809Z,9.33
2022-11-27T08:36:18.272Z,11.33
2022-11-27T08:38:46.267Z,9.53
2022-11-27T08:41:13.231Z,12.10
2022-11-27T08:43:40.140Z,11.63
2022-11-27T08:46:07.745Z,10.50
2022-11-27T08:48:35.239Z,14.10
2022-11-27T08:51:11.362Z,10.93
2022-11-27T08:53:38.656Z,12.97
2022-11-27T08:56:14.349Z,9.67
2022-11-27T08:58:41.279Z,12.20
2022-11-27T09:01:17.824Z,13.77
2022-11-27T09:03:44.943Z,11.97
2022-11-27T09:06:16.189Z,11.80
2022-11-27T09:08:43.898Z,12.33
2022-11-27T09:11:14.040Z,11.87
2022-11-27T09:13:42.249Z,13.50
2022-11-27T09:16:13.269Z,17.43
2022-11-27T09:18:40.553Z,10.43
2022-11-27T09:21:09.872Z,12.23
2022-11-27T09:23:37.707Z,12.77
2022-11-27T09:26:08.666Z,11.43
2022-11-27T09:28:37.126Z,13.47
2022-11-27T09:31:06.473Z,14.07
2022-11-27T09:33:36.199Z,15.03
2022-11-27T09:36:09.623Z,12.97
2022-11-27T09:38:37.123Z,11.30
2022-11-27T09:41:33.686Z,16.67
2022-11-27T09:44:11.659Z,14.10
2022-11-27T09:46:41.708Z,13.30
2022-11-27T09:49:16.220Z,11.83
2022-11-27T09:51:53.785Z,16.00
2022-11-27T09:54:38.969Z,12.63
2022-11-27T09:57:06.491Z,12.07
2022-11-27T09:59:50.989Z,15.90
2022-11-27T10:02:28.659Z,11.77
2022-11-27T10:05:13.479Z,14.20
2022-11-27T10:07:43.961Z,12.33
2022-11-27T10:10:45.471Z,12.93
2022-11-27T10:13:56.556Z,12.57
2022-11-27T10:17:01.993Z,12.57
2022-11-27T10:19:57.688Z,14.13
2022-11-27T10:22:59.594Z,11.27
2022-11-27T10:25:39.956Z,13.40
2022-11-27T10:28:33.567Z,13.70
2022-11-27T10:31:13.804Z,13.43
2022-11-27T10:33:56.697Z,12.63
2022-11-27T10:36:53.659Z,14.37
2022-11-27T10:39:41.171Z,14.30
2022-11-27T10:42:26.253Z,13.57
2022-11-27T10:45:31.771Z,12.07
2022-11-27T10:47:58.601Z,13.23
2022-11-27T10:50:25.500Z,13.43
2022-11-27T10:52:58.047Z,12.87
2022-11-27T10:55:37.001Z,13.10
2022-11-27T10:58:50.267Z,12.10
2022-11-27T11:01:22.884Z,11.23
2022-11-27T11:03:49.943Z,11.13
2022-11-27T11:06:25.858Z,11.43
2022-11-27T11:09:07.290Z,10.90
2022-11-27T11:11:34.068Z,11.13
2022-11-27T11:14:00.904Z,12.07
2022-11-27T11:16:35.347Z,13.47
2022-11-27T11:19:03.587Z,11.87
2022-11-27T11:21:31.981Z,11.47
2022-11-27T11:24:01.790Z,11.90
2022-11-27T11:26:51.455Z,12.67
2022-11-27T11:29:36.350Z,11.00
2022-11-27T11:32:11.438Z,11.73
2022-11-27T11:34:47.826Z,11.20
2022-11-27T11:37:36.347Z,10.47
2022-11-27T11:40:22.685Z,9.27
2022-11-27T11:43:00.269Z,9.63
2022-11-27T11:45:33.226Z,13.63
2022-11-27T11:48:24.843Z,9.60
2022-11-27T11:51:06.208Z,9.73
2022-11-27T11:53:45.447Z,9.20
2022-11-27T11:56:52.462Z,9.57
2022-11-27T11:59:28.675Z,10.97
2022-11-27T12:02:23.147Z,11.93
2022-11-27T12:05:08.473Z,10.83
2022-11-27T12:08:47.213Z,11.97
2022-11-27T12:11:24.361Z,9.63
2022-11-27T12:14:31.656Z,10.37
2022-11-27T12:17:20.094Z,10.40
2022-11-27T12:20:06.193Z,10.23
2022-11-27T12:23:44.315Z,10.37
2022-11-27T12:26:22.752Z,10.53
2022-11-27T12:29:29.941Z,12.03
2022-11-27T12:32:33.897Z,11.30
2022-11-27T12:35:33.658Z,10.60
2022-11-27T12:38:34.554Z,10.13
2022-11-27T12:41:31.140Z,9.67
2022-11-27T12:44:00.561Z,9.50
2022-11-27T12:46:38.710Z,10.03
2022-11-27T12:49:15.276Z,10.20
2022-11-27T12:52:14.371Z,9.53
2022-11-27T12:54:49.746Z,9.60
2022-11-27T12:57:30.365Z,10.20
2022-11-27T13:00:01.984Z,10.43
2022-11-27T13:02:41.381Z,10.77
2022-11-27T13:05:20.451Z,10.30
2022-11-27T13:08:30.788Z,9.93
2022-11-27T13:11:05.498Z,10.20
2022-11-27T13:13:34.684Z,13.83
2022-11-27T13:16:07.613Z,10.13
2022-11-27T13:18:40.991Z,9.13
2022-11-27T13:21:15.379Z,9.83
2022-11-27T13:23:42.368Z,9.53
2022-11-27T13:26:23.243Z,9.27
2022-11-27T13:29:08.664Z,8.50
2022-11-27T13:31:39.472Z,8.27
2022-11-27T13:34:19.896Z,8.60
2022-11-27T13:36:56.276Z,8.93
2022-11-27T13:39:27.899Z,9.17
2022-11-27T13:42:22.300Z,11.23
2022-11-27T13:44:58.095Z,9.27
2022-11-27T13:47:29.548Z,9.10
2022-11-27T13:50:07.102Z,12.70
2022-11-27T13:52:35.554Z,9.80
2022-11-27T13:55:07.524Z,9.70
2022-11-27T13:57:34.804Z,8.93
2022-11-27T14:00:08.189Z,9.47
2022-11-27T14:02:47.738Z,8.17
2022-11-27T14:05:40.746Z,8.83
2022-11-27T14:08:38.396Z,9.27
2022-11-27T14:11:11.736Z,9.20
2022-11-27T14:13:49.227Z,12.33
2022-11-27T14:16:32.171Z,10.97
2022-11-27T14:19:04.409Z,10.20
2022-11-27T14:21:40.825Z,10.30
2022-11-27T14:24:44.029Z,10.97
2022-11-27T14:27:23.764Z,12.20
2022-11-27T14:29:51.656Z,11.43
2022-11-27T14:32:20.310Z,11.00
2022-11-27T14:34:48.748Z,12.03
2022-11-27T14:37:27.975Z,11.57
2022-11-27T14:39:55.530Z,12.37
2022-11-27T14:42:30.104Z,12.07
2022-11-27T14:45:08.713Z,11.73
2022-11-27T14:47:36.008Z,11.40
2022-11-27T14:50:04.020Z,11.80
2022-11-27T14:52:31.523Z,11.80
2022-11-27T14:55:01.185Z,11.57
2022-11-27T14:57:30.196Z,10.93
2022-11-27T15:00:27.093Z,11.27
2022-11-27T15:02:54.833Z,10.77
2022-11-27T15:05:26.103Z,12.90
2022-11-27T15:07:56.990Z,11.97
2022-11-27T15:10:39.299Z,12.23
2022-11-27T15:13:08.677Z,12.07
2022-11-27T15:15:44.990Z,12.63
2022-11-27T15:18:25.100Z,12.13
2022-11-27T15:20:52.868Z,9.57
2022-11-27T15:23:29.656Z,9.87
2022-11-27T15:25:59.429Z,9.93
2022-11-27T15:28:37.672Z,10.27
2022-11-27T15:31:31.452Z,11.00
2022-11-27T15:34:23.346Z,11.50
2022-11-27T15:36:58.537Z,12.13
2022-11-27T15:39:47.167Z,12.50
2022-11-27T15:42:14.690Z,11.73
2022-11-27T15:44:41.944Z,11.60
2022-11-27T15:47:36.643Z,11.97
2022-11-27T15:50:05.557Z,12.47
2022-11-27T15:52:33.080Z,13.37
2022-11-27T15:54:59.868Z,15.90
2022-11-27T15:57:26.780Z,13.40
2022-11-27T15:59:53.575Z,13.10
2022-11-27T16:02:20.549Z,13.00
2022-11-27T16:04:47.526Z,12.87
2022-11-27T16:07:14.753Z,12.20
2022-11-27T16:09:41.669Z,13.60
2022-11-27T16:12:08.518Z,14.07
2022-11-27T16:14:35.492Z,13.60
2022-11-27T16:17:02.507Z,13.17
2022-11-27T16:19:29.971Z,13.53
2022-11-27T16:21:56.958Z,13.70
2022-11-27T16:24:23.984Z,14.13
2022-11-27T16:26:50.841Z,14.23
2022-11-27T16:29:17.976Z,13.20
2022-11-27T16:31:44.870Z,13.77
2022-11-27T16:34:11.811Z,13.83
2022-11-27T16:36:42.128Z,14.40
2022-11-27T16:39:09.129Z,14.17
2022-11-27T16:41:36.336Z,21.40
2022-11-27T16:44:11.797Z,15.13
2022-11-27T16:46:39.438Z,14.60
2022-11-27T16:49:09.182Z,14.53
2022-11-27T16:51:39.237Z,14.90
2022-11-27T16:54:10.705Z,15.23
2022-11-27T16:56:38.633Z,15.73
2022-11-27T16:59:15.730Z,15.57
2022-11-27T17:01:43.389Z,15.17
2022-11-27T17:04:18.297Z,15.10
2022-11-27T17:06:45.944Z,15.27
2022-11-27T17:09:13.577Z,14.90
2022-11-27T17:11:48.295Z,16.13
2022-11-27T17:14:16.239Z,20.03
2022-11-27T17:16:43.377Z,21.10
2022-11-27T17:19:16.002Z,15.17
2022-11-27T17:21:43.246Z,16.03
2022-11-27T17:24:16.069Z,15.73
2022-11-27T17:26:44.684Z,14.00
2022-11-27T17:29:15.192Z,19.70
2022-11-27T17:31:42.357Z,14.53
2022-11-27T17:34:14.144Z,13.90
2022-11-27T17:36:42.967Z,14.57
2022-11-27T17:39:13.302Z,14.70
2022-11-27T17:41:41.152Z,14.97
2022-11-27T17:44:08.321Z,16.63
2022-11-27T17:46:36.891Z,16.03
2022-11-27T17:49:06.390Z,16.53
2022-11-27T17:51:35.413Z,17.83
2022-11-27T17:54:03.588Z,18.50
2022-11-27T17:56:30.508Z,18.17
2022-11-27T17:58:57.966Z,18.83
2022-11-27T18:01:29.197Z,18.30
2022-11-27T18:04:00.509Z,18.27
2022-11-27T18:06:27.678Z,19.37
2022-11-27T18:08:56.469Z,20.00
2022-11-27T18:11:26.185Z,22.00
2022-11-27T18:13:53.035Z,21.27
2022-11-27T18:16:31.074Z,22.37
2022-11-27T18:18:59.335Z,22.70
2022-11-27T18:21:28.439Z,23.60
2022-11-27T18:27:07.190Z,22.50
2022-11-27T18:29:29.925Z,24.43
2022-11-27T18:31:56.829Z,22.53
2022-11-27T18:34:23.654Z,22.80
2022-11-27T18:36:50.460Z,24.10
2022-11-27T18:39:17.303Z,25.57
2022-11-27T18:41:44.144Z,24.93
2022-11-27T18:44:11.025Z,25.53
2022-11-27T18:46:38.223Z,24.97
2022-11-27T18:49:05.582Z,24.60
2022-11-27T18:51:32.849Z,23.80
2022-11-27T18:53:59.724Z,24.90
2022-11-27T18:56:30.448Z,25.00
2022-11-27T18:59:01.341Z,25.07
2022-11-27T19:01:30.802Z,24.83
2022-11-27T19:04:00.440Z,24.40
2022-11-27T19:06:28.524Z,24.87
2022-11-27T19:08:56.789Z,24.30
2022-11-27T19:11:24.831Z,24.80
2022-11-27T19:13:55.479Z,23.17
2022-11-27T19:16:31.020Z,24.30
2022-11-27T19:19:00.380Z,23.00
2022-11-27T19:21:30.214Z,23.70
2022-11-27T19:23:59.920Z,23.80
2022-11-27T19:26:30.716Z,24.60
2022-11-27T19:29:01.388Z,23.83
2022-11-27T19:31:30.543Z,24.70
2022-11-27T19:33:59.892Z,24.43
2022-11-27T19:36:30.065Z,25.27
2022-11-27T19:39:15.859Z,23.33
2022-11-27T19:41:44.022Z,23.07
2022-11-27T19:44:13.040Z,21.60
2022-11-27T19:46:40.955Z,21.40
2022-11-27T19:49:14.244Z,21.00
2022-11-27T19:51:41.684Z,21.90
2022-11-27T19:54:12.649Z,19.07
2022-11-27T19:56:40.818Z,19.67
2022-11-27T19:59:08.825Z,16.97
2022-11-27T20:01:37.592Z,17.30
2022-11-27T20:04:05.549Z,18.07
2022-11-27T20:06:32.951Z,17.77
2022-11-27T20:09:03.726Z,17.27
2022-11-27T20:11:34.860Z,16.13
2022-11-27T20:14:04.499Z,17.03
2022-11-27T20:16:32.004Z,16.93
2022-11-27T20:18:59.302Z,16.40
2022-11-27T20:21:26.591Z,18.17
2022-11-27T20:23:54.775Z,17.00
2022-11-27T20:26:25.173Z,17.20
2022-11-27T20:28:53.968Z,17.53
2022-11-27T20:31:25.278Z,17.70
2022-11-27T20:33:54.423Z,17.77
2022-11-27T20:36:23.707Z,19.37
2022-11-27T20:38:52.037Z,23.57
2022-11-27T20:41:21.153Z,23.10
2022-11-27T20:43:50.546Z,21.73
2022-11-27T20:46:18.037Z,18.60
2022-11-27T20:48:50.303Z,17.33
2022-11-27T20:51:28.335Z,17.53
2022-11-27T20:53:58.664Z,16.93
2022-11-27T20:56:25.645Z,17.40
2022-11-27T20:58:52.544Z,17.63
2022-11-27T21:01:35.475Z,17.60
2022-11-27T21:04:09.516Z,17.43
2022-11-27T21:06:43.422Z,17.70
2022-11-27T21:09:12.265Z,16.60
2022-11-27T21:11:40.389Z,17.83
2022-11-27T21:14:10.145Z,17.77
2022-11-27T21:16:42.332Z,16.63
2022-11-27T21:19:25.247Z,17.37
2022-11-27T21:21:54.160Z,17.73
2022-11-27T21:24:22.586Z,16.27
2022-11-27T21:26:49.955Z,16.73
2022-11-27T21:29:17.292Z,17.43
2022-11-27T21:31:47.151Z,17.10
2022-11-27T21:34:14.932Z,17.27
2022-11-27T21:36:41.905Z,17.53
2022-11-27T21:39:10.518Z,16.53
2022-11-27T21:41:37.449Z,16.83
2022-11-27T21:44:05.767Z,16.10
2022-11-27T21:46:33.555Z,17.27
2022-11-27T21:49:01.260Z,17.33
2022-11-27T21:51:29.955Z,16.00
2022-11-27T21:53:58.984Z,17.67
2022-11-27T21:56:28.859Z,17.60
2022-11-27T21:58:56.003Z,19.07
2022-11-27T22:01:25.785Z,18.80
2022-11-27T22:03:57.396Z,17.97
2022-11-27T22:06:28.746Z,18.10
2022-11-27T22:08:58.429Z,19.97
2022-11-27T22:11:30.175Z,21.20
2022-11-27T22:14:02.493Z,22.97
2022-11-27T22:16:33.508Z,24.60
2022-11-27T22:19:01.941Z,24.40
2022-11-27T22:21:30.860Z,25.13
2022-11-27T22:24:01.052Z,26.10
2022-11-27T22:26:28.731Z,24.23
2022-11-27T22:28:57.795Z,23.30
2022-11-27T22:31:31.121Z,23.20
2022-11-27T22:33:58.204Z,22.10
2022-11-27T22:36:33.165Z,20.67
2022-11-27T22:39:04.374Z,21.67
2022-11-27T22:41:36.197Z,21.13
2022-11-27T22:44:29.968Z,21.20
2022-11-27T22:46:56.750Z,20.40
2022-11-27T22:49:23.620Z,21.57
2022-11-27T22:51:50.408Z,21.20
2022-11-27T22:54:17.552Z,21.57
2022-11-27T22:56:45.724Z,22.33
2022-11-27T23:02:00.288Z,22.27
2022-11-27T23:04:27.164Z,24.73
2022-11-27T23:06:54.088Z,25.70
2022-11-27T23:09:20.871Z,25.40
2022-11-27T23:11:48.177Z,24.17
2022-11-27T23:14:15.134Z,25.50
2022-11-27T23:16:42.037Z,25.13
2022-11-27T23:19:10.112Z,24.97
2022-11-27T23:21:38.647Z,25.30
2022-11-27T23:24:07.946Z,24.93
2022-11-27T23:26:35.095Z,24.37
2022-11-27T23:29:02.386Z,25.53
2022-11-27T23:31:35.535Z,25.53
2022-11-27T23:34:07.434Z,27.13
2022-11-27T23:36:35.526Z,25.63
2022-11-27T23:39:05.335Z,26.27
2022-11-27T23:41:32.347Z,25.07
2022-11-27T23:43:59.451Z,25.93
2022-11-27T23:46:29.473Z,25.30
2022-11-27T23:48:59.571Z,25.67
2022-11-27T23:51:30.990Z,25.40
2022-11-27T23:53:58.999Z,26.23
2022-11-27T23:56:30.844Z,25.57
2022-11-27T23:58:58.401Z,26.07
